sensor_id;sensor_type;location;lat;lon;timestamp;P1;durP1;ratioP1;P2;durP2;ratioP2
65636;SDS011;52327;42.622;23.316;2023-06-04T00:00:27;3.65;;;2.65;;
65636;SDS011;52327;42.622;23.316;2023-06-04T00:02:53;1.88;;;1.42;;
65636;SDS011;52327;42.622;23.316;2023-06-04T00:05:18;3.00;;;1.98;;
65636;SDS011;52327;42.622;23.316;2023-06-04T00:07:44;2.53;;;1.70;;
65636;SDS011;52327;42.622;23.316;2023-06-04T00:10:10;2.72;;;1.70;;
65636;SDS011;52327;42.622;23.316;2023-06-04T00:12:35;3.72;;;1.52;;
65636;SDS011;52327;42.622;23.316;2023-06-04T00:15:08;2.30;;;2.05;;
65636;SDS011;52327;42.622;23.316;2023-06-04T00:17:35;3.15;;;1.52;;
65636;SDS011;52327;42.622;23.316;2023-06-04T00:20:00;3.95;;;2.22;;
65636;SDS011;52327;42.622;23.316;2023-06-04T00:22:26;2.15;;;1.92;;
65636;SDS011;52327;42.622;23.316;2023-06-04T00:24:52;2.45;;;1.30;;
65636;SDS011;52327;42.622;23.316;2023-06-04T00:27:17;2.70;;;1.67;;
65636;SDS011;52327;42.622;23.316;2023-06-04T00:29:43;4.30;;;2.47;;
65636;SDS011;52327;42.622;23.316;2023-06-04T00:32:11;4.15;;;2.17;;
65636;SDS011;52327;42.622;23.316;2023-06-04T00:34:36;4.07;;;2.70;;
65636;SDS011;52327;42.622;23.316;2023-06-04T00:37:02;5.18;;;2.45;;
65636;SDS011;52327;42.622;23.316;2023-06-04T00:39:27;3.13;;;2.03;;
65636;SDS011;52327;42.622;23.316;2023-06-04T00:41:54;3.22;;;1.83;;
65636;SDS011;52327;42.622;23.316;2023-06-04T00:44:20;2.17;;;1.98;;
65636;SDS011;52327;42.622;23.316;2023-06-04T00:46:47;2.90;;;1.75;;
65636;SDS011;52327;42.622;23.316;2023-06-04T00:49:14;3.33;;;1.73;;
65636;SDS011;52327;42.622;23.316;2023-06-04T00:51:40;1.38;;;1.25;;
65636;SDS011;52327;42.622;23.316;2023-06-04T00:54:13;4.00;;;2.42;;
65636;SDS011;52327;42.622;23.316;2023-06-04T00:56:43;3.90;;;2.60;;
65636;SDS011;52327;42.622;23.316;2023-06-04T00:59:17;3.30;;;2.80;;
65636;SDS011;52327;42.622;23.316;2023-06-04T01:04:26;3.13;;;1.77;;
65636;SDS011;52327;42.622;23.316;2023-06-04T01:06:56;2.95;;;1.88;;
65636;SDS011;52327;42.622;23.316;2023-06-04T01:09:25;2.53;;;1.60;;
65636;SDS011;52327;42.622;23.316;2023-06-04T01:11:53;1.98;;;1.70;;
65636;SDS011;52327;42.622;23.316;2023-06-04T01:14:19;3.42;;;2.13;;
65636;SDS011;52327;42.622;23.316;2023-06-04T01:22:32;2.78;;;2.15;;
65636;SDS011;52327;42.622;23.316;2023-06-04T01:25:22;3.25;;;2.03;;
65636;SDS011;52327;42.622;23.316;2023-06-04T01:27:53;2.92;;;2.08;;
65636;SDS011;52327;42.622;23.316;2023-06-04T01:32:57;3.88;;;2.50;;
65636;SDS011;52327;42.622;23.316;2023-06-04T01:35:27;4.82;;;3.20;;
65636;SDS011;52327;42.622;23.316;2023-06-04T01:37:56;5.60;;;3.08;;
65636;SDS011;52327;42.622;23.316;2023-06-04T01:40:25;4.75;;;2.53;;
65636;SDS011;52327;42.622;23.316;2023-06-04T01:42:56;3.25;;;1.88;;
65636;SDS011;52327;42.622;23.316;2023-06-04T01:45:23;3.15;;;1.85;;
65636;SDS011;52327;42.622;23.316;2023-06-04T01:47:53;5.00;;;3.08;;
65636;SDS011;52327;42.622;23.316;2023-06-04T01:50:18;3.28;;;1.70;;
65636;SDS011;52327;42.622;23.316;2023-06-04T01:52:47;4.03;;;2.67;;
65636;SDS011;52327;42.622;23.316;2023-06-04T01:55:16;4.70;;;2.85;;
65636;SDS011;52327;42.622;23.316;2023-06-04T01:57:43;4.40;;;2.30;;
65636;SDS011;52327;42.622;23.316;2023-06-04T02:00:10;2.10;;;1.85;;
65636;SDS011;52327;42.622;23.316;2023-06-04T02:02:37;5.25;;;3.10;;
65636;SDS011;52327;42.622;23.316;2023-06-04T02:05:03;3.63;;;2.42;;
65636;SDS011;52327;42.622;23.316;2023-06-04T02:07:32;3.63;;;1.73;;
65636;SDS011;52327;42.622;23.316;2023-06-04T02:09:59;4.03;;;1.98;;
65636;SDS011;52327;42.622;23.316;2023-06-04T02:12:25;6.18;;;2.13;;
65636;SDS011;52327;42.622;23.316;2023-06-04T02:14:51;3.80;;;1.65;;
65636;SDS011;52327;42.622;23.316;2023-06-04T02:17:16;4.63;;;2.45;;
65636;SDS011;52327;42.622;23.316;2023-06-04T02:19:42;3.50;;;1.88;;
65636;SDS011;52327;42.622;23.316;2023-06-04T02:22:19;3.65;;;1.98;;
65636;SDS011;52327;42.622;23.316;2023-06-04T02:24:45;4.85;;;1.67;;
65636;SDS011;52327;42.622;23.316;2023-06-04T02:27:13;3.33;;;1.83;;
65636;SDS011;52327;42.622;23.316;2023-06-04T02:29:39;4.93;;;2.70;;
65636;SDS011;52327;42.622;23.316;2023-06-04T02:32:08;3.65;;;1.88;;
65636;SDS011;52327;42.622;23.316;2023-06-04T02:34:55;2.45;;;1.30;;
65636;SDS011;52327;42.622;23.316;2023-06-04T02:37:30;2.25;;;1.63;;
65636;SDS011;52327;42.622;23.316;2023-06-04T02:39:55;2.90;;;1.35;;
65636;SDS011;52327;42.622;23.316;2023-06-04T02:42:21;1.52;;;0.88;;
65636;SDS011;52327;42.622;23.316;2023-06-04T02:44:46;2.42;;;1.55;;
65636;SDS011;52327;42.622;23.316;2023-06-04T02:47:12;1.20;;;1.10;;
65636;SDS011;52327;42.622;23.316;2023-06-04T02:49:37;1.75;;;1.02;;
65636;SDS011;52327;42.622;23.316;2023-06-04T02:52:03;2.47;;;1.13;;
65636;SDS011;52327;42.622;23.316;2023-06-04T02:54:29;1.13;;;0.95;;
65636;SDS011;52327;42.622;23.316;2023-06-04T02:57:02;1.73;;;1.15;;
65636;SDS011;52327;42.622;23.316;2023-06-04T02:59:30;2.83;;;1.30;;
65636;SDS011;52327;42.622;23.316;2023-06-04T03:02:00;1.35;;;0.85;;
65636;SDS011;52327;42.622;23.316;2023-06-04T03:04:28;1.70;;;1.15;;
65636;SDS011;52327;42.622;23.316;2023-06-04T03:06:59;1.35;;;1.10;;
65636;SDS011;52327;42.622;23.316;2023-06-04T03:09:32;1.00;;;0.88;;
65636;SDS011;52327;42.622;23.316;2023-06-04T03:12:01;1.50;;;1.00;;
65636;SDS011;52327;42.622;23.316;2023-06-04T03:14:27;1.80;;;1.27;;
65636;SDS011;52327;42.622;23.316;2023-06-04T03:16:57;1.73;;;0.90;;
65636;SDS011;52327;42.622;23.316;2023-06-04T03:19:26;1.58;;;1.00;;
65636;SDS011;52327;42.622;23.316;2023-06-04T03:21:53;0.95;;;0.80;;
65636;SDS011;52327;42.622;23.316;2023-06-04T03:24:19;1.48;;;0.95;;
65636;SDS011;52327;42.622;23.316;2023-06-04T03:26:44;2.20;;;1.25;;
65636;SDS011;52327;42.622;23.316;2023-06-04T03:29:10;2.10;;;1.65;;
65636;SDS011;52327;42.622;23.316;2023-06-04T03:31:37;3.03;;;1.10;;
65636;SDS011;52327;42.622;23.316;2023-06-04T03:34:02;3.92;;;1.88;;
65636;SDS011;52327;42.622;23.316;2023-06-04T03:36:29;1.90;;;1.23;;
65636;SDS011;52327;42.622;23.316;2023-06-04T03:39:03;3.35;;;1.90;;
65636;SDS011;52327;42.622;23.316;2023-06-04T03:41:29;2.25;;;1.02;;
65636;SDS011;52327;42.622;23.316;2023-06-04T03:43:58;2.45;;;1.17;;
65636;SDS011;52327;42.622;23.316;2023-06-04T03:46:23;1.08;;;0.98;;
65636;SDS011;52327;42.622;23.316;2023-06-04T03:48:54;1.38;;;0.90;;
65636;SDS011;52327;42.622;23.316;2023-06-04T03:51:20;1.73;;;1.13;;
65636;SDS011;52327;42.622;23.316;2023-06-04T03:53:45;1.40;;;1.00;;
65636;SDS011;52327;42.622;23.316;2023-06-04T03:56:16;2.90;;;1.08;;
65636;SDS011;52327;42.622;23.316;2023-06-04T03:58:41;1.63;;;1.05;;
65636;SDS011;52327;42.622;23.316;2023-06-04T04:01:07;2.60;;;1.17;;
65636;SDS011;52327;42.622;23.316;2023-06-04T04:03:35;1.48;;;0.98;;
65636;SDS011;52327;42.622;23.316;2023-06-04T04:06:02;1.80;;;0.93;;
65636;SDS011;52327;42.622;23.316;2023-06-04T04:08:30;1.17;;;0.85;;
65636;SDS011;52327;42.622;23.316;2023-06-04T04:10:59;0.68;;;0.60;;
65636;SDS011;52327;42.622;23.316;2023-06-04T04:13:25;1.95;;;1.13;;
65636;SDS011;52327;42.622;23.316;2023-06-04T04:15:51;1.25;;;1.10;;
65636;SDS011;52327;42.622;23.316;2023-06-04T04:18:21;1.55;;;1.15;;
65636;SDS011;52327;42.622;23.316;2023-06-04T04:20:46;2.53;;;1.35;;
65636;SDS011;52327;42.622;23.316;2023-06-04T04:23:12;4.05;;;2.55;;
65636;SDS011;52327;42.622;23.316;2023-06-04T04:25:38;2.40;;;1.50;;
65636;SDS011;52327;42.622;23.316;2023-06-04T04:28:04;1.83;;;1.33;;
65636;SDS011;52327;42.622;23.316;2023-06-04T04:30:33;1.70;;;1.38;;
65636;SDS011;52327;42.622;23.316;2023-06-04T04:33:00;1.42;;;1.05;;
65636;SDS011;52327;42.622;23.316;2023-06-04T04:35:26;0.88;;;0.77;;
65636;SDS011;52327;42.622;23.316;2023-06-04T04:37:51;0.82;;;0.77;;
65636;SDS011;52327;42.622;23.316;2023-06-04T04:40:17;2.45;;;1.65;;
65636;SDS011;52327;42.622;23.316;2023-06-04T04:42:42;1.83;;;1.17;;
65636;SDS011;52327;42.622;23.316;2023-06-04T04:45:08;1.48;;;1.00;;
65636;SDS011;52327;42.622;23.316;2023-06-04T04:47:34;2.42;;;1.77;;
65636;SDS011;52327;42.622;23.316;2023-06-04T04:49:59;2.28;;;1.50;;
65636;SDS011;52327;42.622;23.316;2023-06-04T04:52:27;1.65;;;1.30;;
65636;SDS011;52327;42.622;23.316;2023-06-04T04:54:52;2.83;;;1.70;;
65636;SDS011;52327;42.622;23.316;2023-06-04T04:57:22;1.85;;;1.52;;
65636;SDS011;52327;42.622;23.316;2023-06-04T04:59:48;0.95;;;0.73;;
65636;SDS011;52327;42.622;23.316;2023-06-04T05:02:14;2.03;;;1.48;;
65636;SDS011;52327;42.622;23.316;2023-06-04T05:04:40;1.35;;;1.05;;
65636;SDS011;52327;42.622;23.316;2023-06-04T05:07:06;2.35;;;1.45;;
65636;SDS011;52327;42.622;23.316;2023-06-04T05:09:31;2.83;;;1.52;;
65636;SDS011;52327;42.622;23.316;2023-06-04T05:11:56;1.25;;;1.13;;
65636;SDS011;52327;42.622;23.316;2023-06-04T05:14:22;1.77;;;1.48;;
65636;SDS011;52327;42.622;23.316;2023-06-04T05:16:48;2.65;;;1.77;;
65636;SDS011;52327;42.622;23.316;2023-06-04T05:19:15;1.10;;;1.00;;
65636;SDS011;52327;42.622;23.316;2023-06-04T05:21:42;1.80;;;1.23;;
65636;SDS011;52327;42.622;23.316;2023-06-04T05:24:08;1.95;;;1.60;;
65636;SDS011;52327;42.622;23.316;2023-06-04T05:26:34;3.22;;;1.77;;
65636;SDS011;52327;42.622;23.316;2023-06-04T05:29:00;2.78;;;1.88;;
65636;SDS011;52327;42.622;23.316;2023-06-04T05:31:26;2.25;;;1.60;;
65636;SDS011;52327;42.622;23.316;2023-06-04T05:33:52;1.63;;;1.40;;
65636;SDS011;52327;42.622;23.316;2023-06-04T05:36:18;2.10;;;1.50;;
65636;SDS011;52327;42.622;23.316;2023-06-04T05:38:44;2.28;;;1.48;;
65636;SDS011;52327;42.622;23.316;2023-06-04T05:41:10;6.70;;;1.60;;
65636;SDS011;52327;42.622;23.316;2023-06-04T05:43:37;2.65;;;2.17;;
65636;SDS011;52327;42.622;23.316;2023-06-04T05:46:02;2.08;;;1.48;;
65636;SDS011;52327;42.622;23.316;2023-06-04T05:48:28;2.40;;;1.77;;
65636;SDS011;52327;42.622;23.316;2023-06-04T05:50:53;1.55;;;1.30;;
65636;SDS011;52327;42.622;23.316;2023-06-04T05:53:18;2.33;;;1.42;;
65636;SDS011;52327;42.622;23.316;2023-06-04T05:55:44;4.53;;;1.67;;
65636;SDS011;52327;42.622;23.316;2023-06-04T05:58:09;2.50;;;1.55;;
65636;SDS011;52327;42.622;23.316;2023-06-04T06:00:35;2.50;;;1.80;;
65636;SDS011;52327;42.622;23.316;2023-06-04T06:03:00;1.52;;;1.10;;
65636;SDS011;52327;42.622;23.316;2023-06-04T06:05:26;3.78;;;1.75;;
65636;SDS011;52327;42.622;23.316;2023-06-04T06:07:52;2.53;;;1.63;;
65636;SDS011;52327;42.622;23.316;2023-06-04T06:10:17;3.70;;;1.80;;
65636;SDS011;52327;42.622;23.316;2023-06-04T06:12:43;3.25;;;1.70;;
65636;SDS011;52327;42.622;23.316;2023-06-04T06:15:08;2.28;;;1.63;;
65636;SDS011;52327;42.622;23.316;2023-06-04T06:17:35;2.03;;;1.40;;
65636;SDS011;52327;42.622;23.316;2023-06-04T06:20:00;2.25;;;1.75;;
65636;SDS011;52327;42.622;23.316;2023-06-04T06:22:26;2.97;;;2.25;;
65636;SDS011;52327;42.622;23.316;2023-06-04T06:24:52;2.03;;;1.33;;
65636;SDS011;52327;42.622;23.316;2023-06-04T06:27:18;2.15;;;1.95;;
65636;SDS011;52327;42.622;23.316;2023-06-04T06:29:43;2.85;;;1.80;;
65636;SDS011;52327;42.622;23.316;2023-06-04T06:32:09;1.70;;;1.58;;
65636;SDS011;52327;42.622;23.316;2023-06-04T06:34:35;2.55;;;1.30;;
65636;SDS011;52327;42.622;23.316;2023-06-04T06:37:02;2.40;;;1.80;;
65636;SDS011;52327;42.622;23.316;2023-06-04T06:39:27;1.90;;;1.45;;
65636;SDS011;52327;42.622;23.316;2023-06-04T06:41:53;2.60;;;1.80;;
65636;SDS011;52327;42.622;23.316;2023-06-04T06:44:18;1.75;;;1.45;;
65636;SDS011;52327;42.622;23.316;2023-06-04T06:46:44;2.05;;;1.42;;
65636;SDS011;52327;42.622;23.316;2023-06-04T06:49:09;4.47;;;2.55;;
65636;SDS011;52327;42.622;23.316;2023-06-04T06:51:35;2.03;;;1.48;;
65636;SDS011;52327;42.622;23.316;2023-06-04T06:54:00;1.60;;;1.45;;
65636;SDS011;52327;42.622;23.316;2023-06-04T06:56:26;2.53;;;1.88;;
65636;SDS011;52327;42.622;23.316;2023-06-04T06:58:51;2.17;;;1.65;;
65636;SDS011;52327;42.622;23.316;2023-06-04T07:01:16;2.70;;;1.88;;
65636;SDS011;52327;42.622;23.316;2023-06-04T07:03:42;4.10;;;1.90;;
65636;SDS011;52327;42.622;23.316;2023-06-04T07:06:08;1.60;;;1.40;;
65636;SDS011;52327;42.622;23.316;2023-06-04T07:08:34;2.10;;;1.30;;
65636;SDS011;52327;42.622;23.316;2023-06-04T07:11:00;2.60;;;1.77;;
65636;SDS011;52327;42.622;23.316;2023-06-04T07:13:27;2.83;;;1.92;;
65636;SDS011;52327;42.622;23.316;2023-06-04T07:15:53;2.40;;;1.67;;
65636;SDS011;52327;42.622;23.316;2023-06-04T07:18:18;2.42;;;1.65;;
65636;SDS011;52327;42.622;23.316;2023-06-04T07:20:44;1.80;;;1.40;;
65636;SDS011;52327;42.622;23.316;2023-06-04T07:23:09;2.28;;;1.30;;
65636;SDS011;52327;42.622;23.316;2023-06-04T07:25:35;4.57;;;2.05;;
65636;SDS011;52327;42.622;23.316;2023-06-04T07:28:00;2.15;;;1.50;;
65636;SDS011;52327;42.622;23.316;2023-06-04T07:30:29;6.45;;;2.10;;
65636;SDS011;52327;42.622;23.316;2023-06-04T07:32:56;2.22;;;1.88;;
65636;SDS011;52327;42.622;23.316;2023-06-04T07:35:22;2.25;;;1.42;;
65636;SDS011;52327;42.622;23.316;2023-06-04T07:37:47;2.08;;;1.58;;
65636;SDS011;52327;42.622;23.316;2023-06-04T07:40:14;2.53;;;1.88;;
65636;SDS011;52327;42.622;23.316;2023-06-04T07:42:40;2.28;;;1.52;;
65636;SDS011;52327;42.622;23.316;2023-06-04T07:45:07;2.25;;;1.67;;
65636;SDS011;52327;42.622;23.316;2023-06-04T07:47:33;2.75;;;1.77;;
65636;SDS011;52327;42.622;23.316;2023-06-04T07:50:00;2.80;;;2.05;;
65636;SDS011;52327;42.622;23.316;2023-06-04T07:52:25;6.38;;;2.20;;
65636;SDS011;52327;42.622;23.316;2023-06-04T07:54:51;3.63;;;1.77;;
65636;SDS011;52327;42.622;23.316;2023-06-04T07:57:17;3.25;;;2.20;;
65636;SDS011;52327;42.622;23.316;2023-06-04T07:59:42;3.15;;;2.25;;
65636;SDS011;52327;42.622;23.316;2023-06-04T08:02:07;3.00;;;2.00;;
65636;SDS011;52327;42.622;23.316;2023-06-04T08:04:33;4.00;;;2.17;;
65636;SDS011;52327;42.622;23.316;2023-06-04T08:06:59;3.47;;;2.05;;
65636;SDS011;52327;42.622;23.316;2023-06-04T08:09:24;2.70;;;1.73;;
65636;SDS011;52327;42.622;23.316;2023-06-04T08:11:50;4.00;;;2.25;;
65636;SDS011;52327;42.622;23.316;2023-06-04T08:14:16;2.80;;;2.20;;
65636;SDS011;52327;42.622;23.316;2023-06-04T08:16:41;3.10;;;2.40;;
65636;SDS011;52327;42.622;23.316;2023-06-04T08:19:07;3.08;;;2.38;;
65636;SDS011;52327;42.622;23.316;2023-06-04T08:21:33;4.75;;;2.35;;
65636;SDS011;52327;42.622;23.316;2023-06-04T08:23:59;3.60;;;1.75;;
65636;SDS011;52327;42.622;23.316;2023-06-04T08:26:25;4.13;;;2.45;;
65636;SDS011;52327;42.622;23.316;2023-06-04T08:28:52;2.75;;;2.03;;
65636;SDS011;52327;42.622;23.316;2023-06-04T08:31:18;3.25;;;1.83;;
65636;SDS011;52327;42.622;23.316;2023-06-04T08:33:47;4.00;;;2.83;;
65636;SDS011;52327;42.622;23.316;2023-06-04T08:36:13;5.25;;;2.60;;
65636;SDS011;52327;42.622;23.316;2023-06-04T08:38:39;4.82;;;3.00;;
65636;SDS011;52327;42.622;23.316;2023-06-04T08:43:51;3.88;;;2.80;;
65636;SDS011;52327;42.622;23.316;2023-06-04T08:46:19;6.18;;;3.22;;
65636;SDS011;52327;42.622;23.316;2023-06-04T08:48:46;5.63;;;2.17;;
65636;SDS011;52327;42.622;23.316;2023-06-04T08:51:14;5.20;;;2.33;;
65636;SDS011;52327;42.622;23.316;2023-06-04T08:53:40;3.75;;;2.22;;
65636;SDS011;52327;42.622;23.316;2023-06-04T08:56:07;3.35;;;2.30;;
65636;SDS011;52327;42.622;23.316;2023-06-04T08:58:33;4.70;;;2.38;;
65636;SDS011;52327;42.622;23.316;2023-06-04T09:01:01;4.28;;;2.35;;
65636;SDS011;52327;42.622;23.316;2023-06-04T09:03:28;3.75;;;2.17;;
65636;SDS011;52327;42.622;23.316;2023-06-04T09:06:02;2.90;;;2.08;;
65636;SDS011;52327;42.622;23.316;2023-06-04T09:08:54;5.10;;;2.45;;
65636;SDS011;52327;42.622;23.316;2023-06-04T09:11:26;3.03;;;2.00;;
65636;SDS011;52327;42.622;23.316;2023-06-04T09:13:59;4.15;;;2.58;;
65636;SDS011;52327;42.622;23.316;2023-06-04T09:16:32;3.03;;;2.47;;
65636;SDS011;52327;42.622;23.316;2023-06-04T09:19:06;2.67;;;2.08;;
65636;SDS011;52327;42.622;23.316;2023-06-04T09:24:41;4.88;;;2.35;;
65636;SDS011;52327;42.622;23.316;2023-06-04T09:27:23;4.57;;;2.47;;
65636;SDS011;52327;42.622;23.316;2023-06-04T09:30:02;3.10;;;2.05;;
65636;SDS011;52327;42.622;23.316;2023-06-04T09:32:31;5.38;;;3.10;;
65636;SDS011;52327;42.622;23.316;2023-06-04T09:35:12;4.80;;;2.53;;
65636;SDS011;52327;42.622;23.316;2023-06-04T09:37:43;3.67;;;1.80;;
65636;SDS011;52327;42.622;23.316;2023-06-04T09:40:17;3.38;;;1.85;;
65636;SDS011;52327;42.622;23.316;2023-06-04T09:42:49;5.60;;;2.03;;
65636;SDS011;52327;42.622;23.316;2023-06-04T09:48:22;4.07;;;2.42;;
65636;SDS011;52327;42.622;23.316;2023-06-04T09:51:06;3.60;;;2.05;;
65636;SDS011;52327;42.622;23.316;2023-06-04T09:56:54;4.05;;;2.42;;
65636;SDS011;52327;42.622;23.316;2023-06-04T10:02:08;2.38;;;1.90;;
65636;SDS011;52327;42.622;23.316;2023-06-04T10:04:54;3.10;;;2.63;;
65636;SDS011;52327;42.622;23.316;2023-06-04T10:07:38;3.78;;;2.92;;
65636;SDS011;52327;42.622;23.316;2023-06-04T10:13:53;5.53;;;2.58;;
65636;SDS011;52327;42.622;23.316;2023-06-04T10:16:25;4.20;;;2.80;;
65636;SDS011;52327;42.622;23.316;2023-06-04T10:18:54;3.42;;;1.90;;
65636;SDS011;52327;42.622;23.316;2023-06-04T10:21:22;4.00;;;2.55;;
65636;SDS011;52327;42.622;23.316;2023-06-04T10:23:49;4.50;;;2.10;;
65636;SDS011;52327;42.622;23.316;2023-06-04T10:26:15;3.33;;;2.47;;
65636;SDS011;52327;42.622;23.316;2023-06-04T10:28:42;5.18;;;2.75;;
65636;SDS011;52327;42.622;23.316;2023-06-04T10:31:09;7.78;;;3.22;;
65636;SDS011;52327;42.622;23.316;2023-06-04T10:33:35;4.70;;;2.97;;
65636;SDS011;52327;42.622;23.316;2023-06-04T10:36:14;4.38;;;3.17;;
65636;SDS011;52327;42.622;23.316;2023-06-04T10:38:47;2.70;;;1.85;;
65636;SDS011;52327;42.622;23.316;2023-06-04T10:41:21;2.13;;;1.48;;
65636;SDS011;52327;42.622;23.316;2023-06-04T10:43:49;3.00;;;2.17;;
65636;SDS011;52327;42.622;23.316;2023-06-04T10:46:19;3.15;;;1.73;;
65636;SDS011;52327;42.622;23.316;2023-06-04T10:48:52;4.63;;;2.47;;
65636;SDS011;52327;42.622;23.316;2023-06-04T10:51:30;3.13;;;2.15;;
65636;SDS011;52327;42.622;23.316;2023-06-04T10:53:57;3.47;;;2.30;;
65636;SDS011;52327;42.622;23.316;2023-06-04T10:56:27;3.88;;;2.15;;
65636;SDS011;52327;42.622;23.316;2023-06-04T10:59:15;2.58;;;1.70;;
65636;SDS011;52327;42.622;23.316;2023-06-04T11:01:41;3.47;;;2.63;;
65636;SDS011;52327;42.622;23.316;2023-06-04T11:04:17;3.17;;;2.25;;
65636;SDS011;52327;42.622;23.316;2023-06-04T11:07:00;3.15;;;2.30;;
65636;SDS011;52327;42.622;23.316;2023-06-04T11:09:27;4.13;;;2.33;;
65636;SDS011;52327;42.622;23.316;2023-06-04T11:11:56;3.17;;;2.17;;
65636;SDS011;52327;42.622;23.316;2023-06-04T11:14:24;2.72;;;2.10;;
65636;SDS011;52327;42.622;23.316;2023-06-04T11:16:50;4.45;;;2.17;;
65636;SDS011;52327;42.622;23.316;2023-06-04T11:19:16;2.67;;;2.15;;
65636;SDS011;52327;42.622;23.316;2023-06-04T11:21:41;2.17;;;1.70;;
65636;SDS011;52327;42.622;23.316;2023-06-04T11:24:07;2.20;;;1.63;;
65636;SDS011;52327;42.622;23.316;2023-06-04T11:26:36;3.58;;;2.53;;
65636;SDS011;52327;42.622;23.316;2023-06-04T11:31:40;3.00;;;1.88;;
65636;SDS011;52327;42.622;23.316;2023-06-04T11:34:07;2.40;;;1.95;;
65636;SDS011;52327;42.622;23.316;2023-06-04T11:36:33;3.83;;;2.25;;
65636;SDS011;52327;42.622;23.316;2023-06-04T11:39:03;2.95;;;2.15;;
65636;SDS011;52327;42.622;23.316;2023-06-04T11:41:31;2.78;;;2.03;;
65636;SDS011;52327;42.622;23.316;2023-06-04T11:44:01;9.40;;;1.35;;
65636;SDS011;52327;42.622;23.316;2023-06-04T11:46:34;8.93;;;2.00;;
65636;SDS011;52327;42.622;23.316;2023-06-04T11:49:03;3.58;;;2.67;;
65636;SDS011;52327;42.622;23.316;2023-06-04T11:51:29;2.85;;;1.95;;
65636;SDS011;52327;42.622;23.316;2023-06-04T11:53:55;2.30;;;1.73;;
65636;SDS011;52327;42.622;23.316;2023-06-04T11:56:22;2.22;;;1.75;;
65636;SDS011;52327;42.622;23.316;2023-06-04T11:58:50;1.92;;;1.65;;
65636;SDS011;52327;42.622;23.316;2023-06-04T12:01:16;3.65;;;2.35;;
65636;SDS011;52327;42.622;23.316;2023-06-04T12:03:43;5.90;;;3.50;;
65636;SDS011;52327;42.622;23.316;2023-06-04T12:06:15;3.78;;;2.90;;
65636;SDS011;52327;42.622;23.316;2023-06-04T12:08:52;3.40;;;2.55;;
65636;SDS011;52327;42.622;23.316;2023-06-04T12:11:26;6.45;;;2.92;;
65636;SDS011;52327;42.622;23.316;2023-06-04T12:13:56;4.47;;;2.90;;
65636;SDS011;52327;42.622;23.316;2023-06-04T12:16:23;4.50;;;2.85;;
65636;SDS011;52327;42.622;23.316;2023-06-04T12:18:48;4.97;;;3.13;;
65636;SDS011;52327;42.622;23.316;2023-06-04T12:21:22;6.97;;;4.13;;
65636;SDS011;52327;42.622;23.316;2023-06-04T12:24:07;8.95;;;5.38;;
65636;SDS011;52327;42.622;23.316;2023-06-04T12:26:33;11.50;;;5.05;;
65636;SDS011;52327;42.622;23.316;2023-06-04T12:29:06;4.78;;;2.95;;
65636;SDS011;52327;42.622;23.316;2023-06-04T12:34:08;3.85;;;2.85;;
65636;SDS011;52327;42.622;23.316;2023-06-04T12:36:34;4.05;;;2.97;;
65636;SDS011;52327;42.622;23.316;2023-06-04T12:39:01;5.63;;;3.10;;
65636;SDS011;52327;42.622;23.316;2023-06-04T12:41:28;4.10;;;2.88;;
65636;SDS011;52327;42.622;23.316;2023-06-04T12:43:54;3.80;;;2.63;;
65636;SDS011;52327;42.622;23.316;2023-06-04T12:46:20;5.50;;;3.50;;
65636;SDS011;52327;42.622;23.316;2023-06-04T12:48:47;4.22;;;2.75;;
65636;SDS011;52327;42.622;23.316;2023-06-04T12:51:13;3.85;;;2.78;;
65636;SDS011;52327;42.622;23.316;2023-06-04T12:53:39;4.45;;;3.42;;
65636;SDS011;52327;42.622;23.316;2023-06-04T12:56:05;4.50;;;3.20;;
65636;SDS011;52327;42.622;23.316;2023-06-04T12:58:31;4.32;;;3.58;;
65636;SDS011;52327;42.622;23.316;2023-06-04T13:00:57;5.80;;;3.35;;
65636;SDS011;52327;42.622;23.316;2023-06-04T13:03:22;3.95;;;3.05;;
65636;SDS011;52327;42.622;23.316;2023-06-04T13:05:48;4.78;;;3.70;;
65636;SDS011;52327;42.622;23.316;2023-06-04T13:08:13;4.30;;;2.45;;
65636;SDS011;52327;42.622;23.316;2023-06-04T13:10:40;5.28;;;3.85;;
65636;SDS011;52327;42.622;23.316;2023-06-04T13:13:05;4.05;;;2.75;;
65636;SDS011;52327;42.622;23.316;2023-06-04T13:15:31;5.40;;;3.10;;
65636;SDS011;52327;42.622;23.316;2023-06-04T13:17:56;4.78;;;2.88;;
65636;SDS011;52327;42.622;23.316;2023-06-04T13:20:21;3.28;;;2.85;;
65636;SDS011;52327;42.622;23.316;2023-06-04T13:22:47;5.00;;;3.30;;
65636;SDS011;52327;42.622;23.316;2023-06-04T13:25:13;3.95;;;2.97;;
65636;SDS011;52327;42.622;23.316;2023-06-04T13:27:38;2.85;;;2.00;;
65636;SDS011;52327;42.622;23.316;2023-06-04T13:30:04;3.92;;;3.10;;
65636;SDS011;52327;42.622;23.316;2023-06-04T13:32:34;3.22;;;2.67;;
65636;SDS011;52327;42.622;23.316;2023-06-04T13:35:00;4.22;;;2.85;;
65636;SDS011;52327;42.622;23.316;2023-06-04T13:37:25;3.88;;;2.78;;
65636;SDS011;52327;42.622;23.316;2023-06-04T13:39:51;5.53;;;2.58;;
65636;SDS011;52327;42.622;23.316;2023-06-04T13:42:16;4.07;;;3.05;;
65636;SDS011;52327;42.622;23.316;2023-06-04T13:44:42;2.53;;;1.75;;
65636;SDS011;52327;42.622;23.316;2023-06-04T13:47:07;2.80;;;2.30;;
65636;SDS011;52327;42.622;23.316;2023-06-04T13:49:33;4.22;;;3.00;;
65636;SDS011;52327;42.622;23.316;2023-06-04T13:51:59;4.00;;;2.85;;
65636;SDS011;52327;42.622;23.316;2023-06-04T13:54:24;2.67;;;1.92;;
65636;SDS011;52327;42.622;23.316;2023-06-04T13:56:50;2.85;;;2.10;;
65636;SDS011;52327;42.622;23.316;2023-06-04T13:59:15;3.35;;;2.78;;
65636;SDS011;52327;42.622;23.316;2023-06-04T14:01:41;3.15;;;2.50;;
65636;SDS011;52327;42.622;23.316;2023-06-04T14:04:06;4.95;;;3.05;;
65636;SDS011;52327;42.622;23.316;2023-06-04T14:06:32;15.30;;;3.70;;
65636;SDS011;52327;42.622;23.316;2023-06-04T14:08:58;4.05;;;2.85;;
65636;SDS011;52327;42.622;23.316;2023-06-04T14:11:24;5.53;;;3.22;;
65636;SDS011;52327;42.622;23.316;2023-06-04T14:13:49;5.30;;;3.08;;
65636;SDS011;52327;42.622;23.316;2023-06-04T14:16:15;5.53;;;2.97;;
65636;SDS011;52327;42.622;23.316;2023-06-04T14:18:40;3.67;;;2.95;;
65636;SDS011;52327;42.622;23.316;2023-06-04T14:21:06;3.40;;;2.45;;
65636;SDS011;52327;42.622;23.316;2023-06-04T14:23:31;6.60;;;4.22;;
65636;SDS011;52327;42.622;23.316;2023-06-04T14:25:56;8.80;;;3.22;;
65636;SDS011;52327;42.622;23.316;2023-06-04T14:28:22;3.75;;;2.28;;
65636;SDS011;52327;42.622;23.316;2023-06-04T14:30:47;3.35;;;2.10;;
65636;SDS011;52327;42.622;23.316;2023-06-04T14:33:13;2.00;;;1.80;;
65636;SDS011;52327;42.622;23.316;2023-06-04T14:35:38;3.33;;;2.80;;
65636;SDS011;52327;42.622;23.316;2023-06-04T14:38:09;4.68;;;2.97;;
65636;SDS011;52327;42.622;23.316;2023-06-04T14:40:34;5.90;;;2.75;;
65636;SDS011;52327;42.622;23.316;2023-06-04T14:43:00;2.80;;;2.53;;
65636;SDS011;52327;42.622;23.316;2023-06-04T14:45:26;3.42;;;2.33;;
65636;SDS011;52327;42.622;23.316;2023-06-04T14:47:51;2.97;;;2.25;;
65636;SDS011;52327;42.622;23.316;2023-06-04T14:50:17;2.75;;;2.08;;
65636;SDS011;52327;42.622;23.316;2023-06-04T14:52:43;3.15;;;2.70;;
65636;SDS011;52327;42.622;23.316;2023-06-04T14:55:09;3.40;;;2.45;;
65636;SDS011;52327;42.622;23.316;2023-06-04T14:57:35;11.32;;;3.17;;
65636;SDS011;52327;42.622;23.316;2023-06-04T15:00:00;3.45;;;2.28;;
65636;SDS011;52327;42.622;23.316;2023-06-04T15:02:27;3.38;;;2.30;;
65636;SDS011;52327;42.622;23.316;2023-06-04T15:04:54;3.97;;;2.50;;
65636;SDS011;52327;42.622;23.316;2023-06-04T15:07:20;4.20;;;2.80;;
65636;SDS011;52327;42.622;23.316;2023-06-04T15:09:46;3.80;;;3.20;;